createdAt,value
2022-11-17T00:01:21.773Z,100054.63
2022-11-17T00:03:48.374Z,100052.78
2022-11-17T00:06:14.806Z,100056.50
2022-11-17T00:08:41.310Z,100066.06
2022-11-17T00:11:07.734Z,100065.06
2022-11-17T00:13:34.359Z,100072.16
2022-11-17T00:16:00.991Z,100068.69
2022-11-17T00:18:27.390Z,100067.75
2022-11-17T00:20:53.800Z,100055.44
2022-11-17T00:23:20.294Z,100058.00
2022-11-17T00:25:46.761Z,100037.72
2022-11-17T00:28:13.345Z,100038.56
2022-11-17T00:30:44.079Z,100027.16
2022-11-17T00:33:10.571Z,100026.38
2022-11-17T00:35:38.677Z,100031.66
2022-11-17T00:38:05.159Z,100019.22
2022-11-17T00:40:31.571Z,100028.13
2022-11-17T00:42:58.018Z,100023.59
2022-11-17T00:45:24.446Z,100019.25
2022-11-17T00:47:50.854Z,100008.69
2022-11-17T00:50:17.338Z,100014.78
2022-11-17T00:52:43.747Z,100012.16
2022-11-17T00:55:10.199Z,99997.19
2022-11-17T00:57:36.746Z,99999.03
2022-11-17T01:00:03.318Z,100008.72
2022-11-17T01:02:29.734Z,100006.94
2022-11-17T01:04:56.143Z,100012.38
2022-11-17T01:07:24.825Z,100008.97
2022-11-17T01:09:51.332Z,100002.75
2022-11-17T01:12:17.728Z,100003.56
2022-11-17T01:14:44.158Z,100006.09
2022-11-17T01:17:10.584Z,100002.59
2022-11-17T01:19:37.026Z,99994.63
2022-11-17T01:22:03.481Z,99981.41
2022-11-17T01:24:29.880Z,99976.13
2022-11-17T01:26:56.283Z,99962.94
2022-11-17T01:29:22.730Z,99975.34
2022-11-17T01:31:50.370Z,99954.22
2022-11-17T01:34:16.832Z,99948.88
2022-11-17T01:36:43.359Z,99950.69
2022-11-17T01:39:09.818Z,99943.72
2022-11-17T01:41:36.186Z,99945.53
2022-11-17T01:44:41.373Z,99933.94
2022-11-17T01:47:17.029Z,99943.69
2022-11-17T01:49:43.443Z,99931.53
2022-11-17T01:52:09.840Z,99918.47
2022-11-17T01:54:37.091Z,99928.94
2022-11-17T01:57:06.391Z,99924.47
2022-11-17T01:59:35.369Z,99924.34
2022-11-17T02:02:01.817Z,99914.78
2022-11-17T02:05:00.319Z,99920.06
2022-11-17T02:07:28.497Z,99912.13
2022-11-17T02:09:54.939Z,99912.22
2022-11-17T02:12:21.738Z,99901.56
2022-11-17T02:14:51.379Z,99891.84
2022-11-17T02:17:17.856Z,99906.88
2022-11-17T02:19:44.677Z,99901.56
2022-11-17T02:22:29.774Z,99917.44
2022-11-17T02:25:29.886Z,99903.13
2022-11-17T02:28:17.417Z,99892.78
2022-11-17T02:30:46.842Z,99894.78
2022-11-17T02:33:19.202Z,99888.53
2022-11-17T02:35:52.086Z,99885.94
2022-11-17T02:38:39.878Z,99887.69
2022-11-17T02:41:26.890Z,99879.75
2022-11-17T02:44:28.998Z,99877.19
2022-11-17T02:47:06.155Z,99878.13
2022-11-17T02:49:37.165Z,99864.06
2022-11-17T02:52:03.579Z,99868.56
2022-11-17T02:54:30.880Z,99856.22
2022-11-17T02:56:57.441Z,99862.34
2022-11-17T02:59:28.079Z,99851.94
2022-11-17T03:02:26.723Z,99873.94
2022-11-17T03:05:01.797Z,99856.31
2022-11-17T03:07:40.581Z,99864.25
2022-11-17T03:10:33.575Z,99858.06
2022-11-17T03:13:09.926Z,99864.31
2022-11-17T03:15:50.612Z,99856.41
2022-11-17T03:18:29.951Z,99861.84
2022-11-17T03:21:20.719Z,99845.91
2022-11-17T03:23:50.141Z,99845.97
2022-11-17T03:26:20.567Z,99832.09
2022-11-17T03:28:47.044Z,99847.88
2022-11-17T03:31:13.543Z,99839.91
2022-11-17T03:33:39.952Z,99833.72
2022-11-17T03:36:09.583Z,99834.59
2022-11-17T03:38:38.743Z,99840.91
2022-11-17T03:41:05.564Z,99824.28
2022-11-17T03:43:32.045Z,99812.75
2022-11-17T03:46:02.886Z,99828.44
2022-11-17T03:48:33.808Z,99808.31
2022-11-17T03:51:12.484Z,99791.66
2022-11-17T03:53:39.083Z,99793.41
2022-11-17T03:56:23.650Z,99800.50
2022-11-17T03:58:57.567Z,99790.09
2022-11-17T04:01:24.443Z,99789.34
2022-11-17T04:03:51.498Z,99789.94
2022-11-17T04:06:17.955Z,99790.91
2022-11-17T04:08:44.359Z,99805.16
2022-11-17T04:11:10.788Z,99786.63
2022-11-17T04:13:37.431Z,99787.47
2022-11-17T04:16:04.552Z,99798.19
2022-11-17T04:18:30.946Z,99786.72
2022-11-17T04:20:57.485Z,99779.69
2022-11-17T04:23:24.059Z,99781.41
2022-11-17T04:25:56.887Z,99780.50
2022-11-17T04:28:24.018Z,99777.16
2022-11-17T04:30:50.418Z,99770.13
2022-11-17T04:33:16.846Z,99770.09
2022-11-17T04:35:43.251Z,99771.84
2022-11-17T04:38:09.695Z,99760.56
2022-11-17T04:40:36.166Z,99776.34
2022-11-17T04:43:02.591Z,99779.66
2022-11-17T04:45:28.971Z,99765.53
2022-11-17T04:47:55.403Z,99777.22
2022-11-17T04:50:21.803Z,99773.47
2022-11-17T04:52:48.188Z,99771.84
2022-11-17T04:55:14.598Z,99760.50
2022-11-17T04:57:41.016Z,99763.97
2022-11-17T05:00:08.110Z,99755.28
2022-11-17T05:02:34.603Z,99744.72
2022-11-17T05:05:01.015Z,99736.81
2022-11-17T05:07:27.528Z,99742.03
2022-11-17T05:09:53.954Z,99741.28
2022-11-17T05:12:20.415Z,99749.06
2022-11-17T05:14:46.809Z,99742.09
2022-11-17T05:17:13.252Z,99736.13
2022-11-17T05:19:43.752Z,99734.38
2022-11-17T05:22:10.505Z,99745.69
2022-11-17T05:24:36.946Z,99744.03
2022-11-17T05:27:03.440Z,99749.50
2022-11-17T05:29:32.449Z,99740.31
2022-11-17T05:31:58.878Z,99734.38
2022-11-17T05:34:25.359Z,99723.84
2022-11-17T05:36:51.775Z,99729.09
2022-11-17T05:39:18.178Z,99738.81
2022-11-17T05:41:44.607Z,99724.75
2022-11-17T05:44:11.029Z,99721.31
2022-11-17T05:46:37.565Z,99733.53
2022-11-17T05:49:04.053Z,99732.72
2022-11-17T05:51:30.455Z,99734.38
2022-11-17T05:53:56.900Z,99744.94
2022-11-17T05:56:36.660Z,99737.94
2022-11-17T05:59:16.811Z,99731.81
2022-11-17T06:02:10.167Z,99731.00
2022-11-17T06:04:36.709Z,99723.19
2022-11-17T06:07:03.382Z,99731.00
2022-11-17T06:09:31.949Z,99715.41
2022-11-17T06:12:02.559Z,99715.53
2022-11-17T06:14:31.874Z,99720.59
2022-11-17T06:17:00.446Z,99723.38
2022-11-17T06:19:33.209Z,99731.19
2022-11-17T06:22:14.781Z,99727.66
2022-11-17T06:24:42.160Z,99732.13
2022-11-17T06:27:09.223Z,99722.38
2022-11-17T06:29:38.273Z,99724.00
2022-11-17T06:32:07.348Z,99718.09
2022-11-17T06:34:33.769Z,99704.31
2022-11-17T06:37:00.344Z,99711.97
2022-11-17T06:39:26.761Z,99718.84
2022-11-17T06:41:57.238Z,99715.22
2022-11-17T06:44:23.725Z,99730.22
2022-11-17T06:46:50.116Z,99730.28
2022-11-17T06:49:16.532Z,99717.91
2022-11-17T06:51:45.331Z,99728.47
2022-11-17T06:54:12.433Z,99726.69
2022-11-17T06:56:38.834Z,99727.66
2022-11-17T06:59:05.311Z,99712.84
2022-11-17T07:01:31.720Z,99723.19
2022-11-17T07:03:58.161Z,99715.53
2022-11-17T07:06:24.561Z,99717.25
2022-11-17T07:08:50.967Z,99744.53
2022-11-17T07:11:17.479Z,99726.09
2022-11-17T07:13:43.937Z,99734.88
2022-11-17T07:16:12.059Z,99716.50
2022-11-17T07:18:39.026Z,99724.28
2022-11-17T07:21:06.417Z,99719.00
2022-11-17T07:23:33.388Z,99716.41
2022-11-17T07:26:00.103Z,99708.50
2022-11-17T07:28:26.670Z,99716.34
2022-11-17T07:30:53.288Z,99720.81
2022-11-17T07:33:19.922Z,99711.13
2022-11-17T07:35:46.421Z,99713.72
2022-11-17T07:38:12.932Z,99727.69
2022-11-17T07:40:39.377Z,99714.66
2022-11-17T07:43:05.947Z,99714.41
2022-11-17T07:45:32.567Z,99703.91
2022-11-17T07:48:02.784Z,99700.34
2022-11-17T07:50:29.548Z,99700.50
2022-11-17T07:52:56.400Z,99703.13
2022-11-17T07:55:23.455Z,99690.69
2022-11-17T07:57:59.409Z,99706.38
2022-11-17T08:00:28.061Z,99691.50
2022-11-17T08:02:54.549Z,99689.72
2022-11-17T08:05:21.100Z,99692.34
2022-11-17T08:07:56.889Z,99681.78
2022-11-17T08:10:23.330Z,99681.00
2022-11-17T08:12:55.783Z,99671.41
2022-11-17T08:15:22.246Z,99666.41
2022-11-17T08:17:52.770Z,99687.09
2022-11-17T08:20:19.305Z,99682.69
2022-11-17T08:22:45.724Z,99674.75
2022-11-17T08:25:12.147Z,99677.44
2022-11-17T08:27:38.566Z,99681.88
2022-11-17T08:30:05.487Z,99672.06
2022-11-17T08:32:31.926Z,99675.50
2022-11-17T08:34:58.320Z,99676.31
2022-11-17T08:37:24.876Z,99671.13
2022-11-17T08:39:51.295Z,99671.03
2022-11-17T08:42:19.049Z,99668.50
2022-11-17T08:44:45.446Z,99682.56
2022-11-17T08:47:11.891Z,99671.03
2022-11-17T08:49:38.286Z,99674.72
2022-11-17T08:52:04.866Z,99669.44
2022-11-17T08:54:31.266Z,99676.50
2022-11-17T08:56:58.517Z,99665.81
2022-11-17T08:59:25.653Z,99658.84
2022-11-17T09:01:53.134Z,99676.31
2022-11-17T09:04:19.608Z,99662.25
2022-11-17T09:06:46.023Z,99668.50
2022-11-17T09:09:13.975Z,99657.97
2022-11-17T09:11:40.415Z,99658.91
2022-11-17T09:14:07.228Z,99660.41
2022-11-17T09:16:33.695Z,99660.41
2022-11-17T09:19:00.576Z,99672.00
2022-11-17T09:21:26.980Z,99664.97
2022-11-17T09:23:53.832Z,99670.16
2022-11-17T09:26:20.320Z,99656.16
2022-11-17T09:28:46.829Z,99659.44
2022-11-17T09:31:19.172Z,99664.59
2022-11-17T09:33:45.758Z,99671.53
2022-11-17T09:36:12.937Z,99660.94
2022-11-17T09:38:40.046Z,99648.75
2022-11-17T09:41:15.868Z,99657.53
2022-11-17T09:43:44.893Z,99649.56
2022-11-17T09:46:21.516Z,99641.59
2022-11-17T09:48:53.645Z,99661.84
2022-11-17T09:51:20.548Z,99639.00
2022-11-17T09:54:07.687Z,99640.66
2022-11-17T09:56:34.093Z,99643.34
2022-11-17T09:59:04.436Z,99632.81
2022-11-17T10:01:30.909Z,99630.97
2022-11-17T10:03:57.483Z,99637.75
2022-11-17T10:06:25.376Z,99640.41
2022-11-17T10:08:55.142Z,99642.97
2022-11-17T10:11:21.546Z,99645.91
2022-11-17T10:13:47.966Z,99635.41
2022-11-17T10:16:14.458Z,99634.72
2022-11-17T10:18:40.909Z,99658.66
2022-11-17T10:21:10.313Z,99630.31
2022-11-17T10:23:46.107Z,99634.72
2022-11-17T10:26:14.132Z,99626.03
2022-11-17T10:28:40.550Z,99626.00
2022-11-17T10:31:09.957Z,99616.22
2022-11-17T10:33:39.093Z,99610.06
2022-11-17T10:36:26.699Z,99618.97
2022-11-17T10:38:54.089Z,99604.94
2022-11-17T10:41:40.203Z,99607.81
2022-11-17T10:44:16.748Z,99585.88
2022-11-17T10:47:02.738Z,99587.50
2022-11-17T10:49:36.166Z,99593.69
2022-11-17T10:52:15.133Z,99589.28
2022-11-17T10:54:43.087Z,99590.22
2022-11-17T10:57:16.245Z,99583.13
2022-11-17T10:59:52.091Z,99601.44
2022-11-17T11:02:36.353Z,99604.22
2022-11-17T11:05:05.681Z,99576.81
2022-11-17T11:07:32.175Z,99583.84
2022-11-17T11:10:16.791Z,99592.63
2022-11-17T11:12:50.410Z,99580.50
2022-11-17T11:15:20.322Z,99583.94
2022-11-17T11:17:46.598Z,99581.34
2022-11-17T11:20:17.197Z,99579.84
2022-11-17T11:22:55.765Z,99577.91
2022-11-17T11:25:59.440Z,99579.66
2022-11-17T11:28:47.012Z,99576.28
2022-11-17T11:31:53.328Z,99572.69
2022-11-17T11:34:41.539Z,99570.88
2022-11-17T11:37:13.911Z,99563.78
2022-11-17T11:39:52.392Z,99568.25
2022-11-17T11:42:40.958Z,99564.94
2022-11-17T11:45:16.622Z,99568.44
2022-11-17T11:48:12.106Z,99560.59
2022-11-17T11:51:07.665Z,99565.16
2022-11-17T11:54:25.457Z,99579.22
2022-11-17T11:56:51.872Z,99571.31
2022-11-17T11:59:21.159Z,99551.94
2022-11-17T12:02:09.566Z,99559.88
2022-11-17T12:04:41.974Z,99565.00
2022-11-17T12:07:30.110Z,99571.06
2022-11-17T12:10:11.169Z,99561.50
2022-11-17T12:12:38.733Z,99562.41
2022-11-17T12:15:17.195Z,99558.75
2022-11-17T12:18:05.901Z,99573.75
2022-11-17T12:20:38.361Z,99566.72
2022-11-17T12:23:42.392Z,99574.78
2022-11-17T12:26:19.906Z,99575.63
2022-11-17T12:28:46.469Z,99579.97
2022-11-17T12:31:46.801Z,99567.69
2022-11-17T12:34:32.831Z,99580.91
2022-11-17T12:37:14.457Z,99576.47
2022-11-17T12:40:02.126Z,99583.53
2022-11-17T12:42:28.727Z,99583.56
2022-11-17T12:44:59.184Z,99580.06
2022-11-17T12:47:38.600Z,99574.72
2022-11-17T12:50:17.165Z,99577.28
2022-11-17T12:52:43.473Z,99576.50
2022-11-17T12:55:16.208Z,99572.13
2022-11-17T12:57:42.656Z,99582.59
2022-11-17T13:00:11.136Z,99569.44
2022-11-17T13:02:55.886Z,99589.81
2022-11-17T13:05:26.942Z,99585.13
2022-11-17T13:08:19.059Z,99579.88
2022-11-17T13:10:45.452Z,99590.47
2022-11-17T13:13:22.554Z,99592.22
2022-11-17T13:16:01.502Z,99586.78
2022-11-17T13:18:36.148Z,99583.38
2022-11-17T13:21:02.565Z,99571.22
2022-11-17T13:23:32.642Z,99579.06
2022-11-17T13:26:19.074Z,99579.16
2022-11-17T13:28:45.788Z,99581.06
2022-11-17T13:31:13.843Z,99577.47
2022-11-17T13:33:40.604Z,99584.66
2022-11-17T13:36:17.004Z,99592.59
2022-11-17T13:38:47.621Z,99583.78
2022-11-17T13:41:14.607Z,99589.94
2022-11-17T13:43:41.047Z,99581.13
2022-11-17T13:46:07.975Z,99585.59
2022-11-17T13:48:35.823Z,99581.22
2022-11-17T13:51:15.342Z,99591.69
2022-11-17T13:53:42.295Z,99588.22
2022-11-17T13:56:24.921Z,99583.84
2022-11-17T13:58:55.416Z,99586.66
2022-11-17T14:01:23.464Z,99582.97
2022-11-17T14:03:50.039Z,99577.66
2022-11-17T14:06:16.544Z,99600.56
2022-11-17T14:08:44.055Z,99588.16
2022-11-17T14:11:10.346Z,99599.78
2022-11-17T14:13:46.880Z,99584.94
2022-11-17T14:16:26.367Z,99597.00
2022-11-17T14:19:15.257Z,99597.88
2022-11-17T14:22:01.659Z,99603.34
2022-11-17T14:24:28.116Z,99606.72
2022-11-17T14:26:54.549Z,99601.56
2022-11-17T14:29:21.436Z,99621.06
2022-11-17T14:31:47.859Z,99606.22
2022-11-17T14:34:14.471Z,99601.75
2022-11-17T14:36:43.055Z,99609.75
2022-11-17T14:39:14.514Z,99589.66
2022-11-17T14:41:44.812Z,99607.19
2022-11-17T14:44:11.329Z,99615.00
2022-11-17T14:46:37.794Z,99616.78
2022-11-17T14:49:04.385Z,99619.47
2022-11-17T14:51:31.030Z,99620.34
2022-11-17T14:53:57.507Z,99628.16
2022-11-17T14:56:24.134Z,99616.00
2022-11-17T14:58:59.867Z,99619.72
2022-11-17T15:01:28.067Z,99618.03
2022-11-17T15:03:57.603Z,99626.72
2022-11-17T15:06:24.026Z,99632.03
2022-11-17T15:09:00.668Z,99631.13
2022-11-17T15:11:28.330Z,99638.09
2022-11-17T15:13:54.938Z,99629.25
2022-11-17T15:16:21.343Z,99637.28
2022-11-17T15:18:47.857Z,99632.75
2022-11-17T15:21:15.017Z,99637.06
2022-11-17T15:23:41.813Z,99636.19
2022-11-17T15:26:10.926Z,99639.84
2022-11-17T15:28:37.718Z,99639.16
2022-11-17T15:31:08.603Z,99636.50
2022-11-17T15:33:35.099Z,99652.09
2022-11-17T15:36:02.285Z,99646.78
2022-11-17T15:38:28.939Z,99649.50
2022-11-17T15:40:55.515Z,99647.84
2022-11-17T15:43:27.799Z,99654.06
2022-11-17T15:46:00.490Z,99651.63
2022-11-17T15:48:26.939Z,99651.66
2022-11-17T15:51:00.454Z,99658.56
2022-11-17T15:53:30.843Z,99662.94
2022-11-17T15:56:11.767Z,99654.16
2022-11-17T15:58:38.784Z,99652.56
2022-11-17T16:01:08.374Z,99653.41
2022-11-17T16:03:35.038Z,99661.22
2022-11-17T16:06:01.710Z,99652.50
2022-11-17T16:08:30.560Z,99656.97
2022-11-17T16:10:57.085Z,99648.13
2022-11-17T16:13:23.592Z,99655.91
2022-11-17T16:15:50.504Z,99659.66
2022-11-17T16:18:17.183Z,99659.56
2022-11-17T16:20:43.688Z,99666.63
2022-11-17T16:23:10.101Z,99649.06
2022-11-17T16:25:43.270Z,99660.47
2022-11-17T16:28:09.997Z,99662.34
2022-11-17T16:30:36.475Z,99664.00
2022-11-17T16:33:03.602Z,99669.25
2022-11-17T16:35:30.316Z,99667.59
2022-11-17T16:37:56.743Z,99672.88
2022-11-17T16:40:23.248Z,99665.84
2022-11-17T16:42:49.685Z,99671.03
2022-11-17T16:45:16.117Z,99667.53
2022-11-17T16:47:42.523Z,99664.13
2022-11-17T16:50:09.313Z,99669.38
2022-11-17T16:52:35.851Z,99664.13
2022-11-17T16:55:05.047Z,99665.84
2022-11-17T16:57:31.612Z,99673.03
2022-11-17T16:59:58.139Z,99677.44
2022-11-17T17:02:24.609Z,99677.44
2022-11-17T17:04:51.105Z,99669.47
2022-11-17T17:07:17.577Z,99671.22
2022-11-17T17:09:43.977Z,99682.78
2022-11-17T17:12:10.372Z,99689.84
2022-11-17T17:14:36.786Z,99686.22
2022-11-17T17:17:03.183Z,99681.88
2022-11-17T17:19:29.584Z,99680.16
2022-11-17T17:21:56.310Z,99695.03
2022-11-17T17:24:22.738Z,99692.25
2022-11-17T17:26:49.150Z,99690.50
2022-11-17T17:29:15.843Z,99695.81
2022-11-17T17:31:42.431Z,99684.34
2022-11-17T17:34:08.921Z,99693.91
2022-11-17T17:36:35.576Z,99695.88
2022-11-17T17:39:03.052Z,99699.47
2022-11-17T17:41:31.234Z,99689.63
2022-11-17T17:43:58.827Z,99701.97
2022-11-17T17:46:25.369Z,99695.75
2022-11-17T17:48:51.865Z,99705.59
2022-11-17T17:51:19.522Z,99701.09
2022-11-17T17:53:46.004Z,99700.28
2022-11-17T17:56:14.427Z,99701.03
2022-11-17T17:58:40.892Z,99724.81
2022-11-17T18:01:14.483Z,99710.81
2022-11-17T18:03:42.121Z,99709.81
2022-11-17T18:06:08.785Z,99708.06
2022-11-17T18:08:38.019Z,99706.47
2022-11-17T18:11:05.953Z,99709.88
2022-11-17T18:13:32.977Z,99715.16
2022-11-17T18:15:59.718Z,99724.72
2022-11-17T18:18:26.215Z,99716.88
2022-11-17T18:21:06.579Z,99723.00
2022-11-17T18:23:33.151Z,99722.19
2022-11-17T18:26:18.241Z,99728.47
2022-11-17T18:28:49.695Z,99717.91
2022-11-17T18:31:16.137Z,99728.41
2022-11-17T18:33:42.524Z,99726.56
2022-11-17T18:36:09.060Z,99732.88
2022-11-17T18:38:36.031Z,99720.63
2022-11-17T18:41:03.325Z,99718.84
2022-11-17T18:43:30.648Z,99720.59
2022-11-17T18:46:19.767Z,99717.91
2022-11-17T18:48:47.248Z,99722.31
2022-11-17T18:51:21.274Z,99728.56
2022-11-17T18:53:48.807Z,99724.13
2022-11-17T18:56:17.286Z,99734.69
2022-11-17T18:58:43.717Z,99736.34
2022-11-17T19:01:16.684Z,99731.34
2022-11-17T19:03:44.997Z,99731.34
2022-11-17T19:06:12.113Z,99740.16
2022-11-17T19:08:38.529Z,99749.84
2022-11-17T19:11:06.446Z,99750.66
2022-11-17T19:13:36.424Z,99745.50
2022-11-17T19:16:14.619Z,99755.97
2022-11-17T19:18:41.082Z,99759.47
2022-11-17T19:21:08.427Z,99755.97
2022-11-17T19:23:35.167Z,99759.53
2022-11-17T19:26:06.029Z,99766.50
2022-11-17T19:28:32.812Z,99753.31
2022-11-17T19:31:03.624Z,99770.94
2022-11-17T19:33:31.268Z,99758.47
2022-11-17T19:35:57.750Z,99770.13
2022-11-17T19:38:24.165Z,99778.06
2022-11-17T19:40:54.626Z,99773.66
2022-11-17T19:43:21.381Z,99784.09
2022-11-17T19:45:48.256Z,99774.50
2022-11-17T19:48:14.743Z,99779.81
2022-11-17T19:50:41.181Z,99773.78
2022-11-17T19:53:07.609Z,99784.31
2022-11-17T19:55:34.140Z,99779.06
2022-11-17T19:58:00.650Z,99781.81
2022-11-17T20:00:27.030Z,99792.47
2022-11-17T20:02:53.555Z,99796.88
2022-11-17T20:05:19.961Z,99804.66
2022-11-17T20:07:46.432Z,99789.81
2022-11-17T20:10:12.932Z,99802.22
2022-11-17T20:12:39.383Z,99793.53
2022-11-17T20:15:06.103Z,99800.66
2022-11-17T20:17:32.551Z,99798.88
2022-11-17T20:19:58.955Z,99810.25
2022-11-17T20:22:25.382Z,99809.44
2022-11-17T20:24:51.778Z,99805.94
2022-11-17T20:27:18.193Z,99816.44
2022-11-17T20:29:44.626Z,99807.81
2022-11-17T20:32:11.093Z,99814.91
2022-11-17T20:34:37.617Z,99815.03
2022-11-17T20:37:04.168Z,99815.06
2022-11-17T20:39:30.579Z,99818.72
2022-11-17T20:41:56.994Z,99817.78
2022-11-17T20:44:23.449Z,99820.34
2022-11-17T20:46:51.392Z,99812.44
2022-11-17T20:49:18.212Z,99818.56
2022-11-17T20:51:44.836Z,99813.38
2022-11-17T20:54:11.373Z,99811.59
2022-11-17T20:56:37.772Z,99816.91
2022-11-17T20:59:04.297Z,99822.28
2022-11-17T21:01:30.767Z,99825.78
2022-11-17T21:03:57.223Z,99823.13
2022-11-17T21:06:23.643Z,99825.75
2022-11-17T21:08:50.092Z,99830.06
2022-11-17T21:11:21.515Z,99818.75
2022-11-17T21:13:48.018Z,99830.06
2022-11-17T21:16:14.740Z,99836.22
2022-11-17T21:18:47.783Z,99830.19
2022-11-17T21:21:14.407Z,99848.63
2022-11-17T21:23:41.194Z,99839.03
2022-11-17T21:26:12.168Z,99848.72
2022-11-17T21:28:39.984Z,99848.66
2022-11-17T21:31:16.858Z,99846.00
2022-11-17T21:33:43.685Z,99845.09
2022-11-17T21:36:14.915Z,99852.09
2022-11-17T21:38:41.766Z,99853.81
2022-11-17T21:41:11.473Z,99852.19
2022-11-17T21:43:38.563Z,99848.66
2022-11-17T21:46:06.697Z,99854.09
2022-11-17T21:48:33.985Z,99862.03
2022-11-17T21:51:00.437Z,99857.66
2022-11-17T21:53:27.416Z,99863.66
2022-11-17T21:55:59.238Z,99866.16
2022-11-17T21:58:27.187Z,99866.94
2022-11-17T22:00:53.767Z,99864.44
2022-11-17T22:03:20.422Z,99872.38
2022-11-17T22:05:54.829Z,99865.22
2022-11-17T22:08:25.949Z,99866.16
2022-11-17T22:10:52.527Z,99883.75
2022-11-17T22:13:20.122Z,99874.16
2022-11-17T22:15:46.714Z,99870.75
2022-11-17T22:18:13.265Z,99874.25
2022-11-17T22:20:51.127Z,99869.00
2022-11-17T22:23:17.673Z,99883.97
2022-11-17T22:25:45.781Z,99886.59
2022-11-17T22:28:12.533Z,99876.97
2022-11-17T22:30:39.130Z,99883.13
2022-11-17T22:33:05.651Z,99885.75
2022-11-17T22:35:32.123Z,99893.59
2022-11-17T22:37:58.521Z,99899.75
2022-11-17T22:40:24.942Z,99897.16
2022-11-17T22:42:54.661Z,99899.94
2022-11-17T22:45:21.124Z,99907.00
2022-11-17T22:47:47.540Z,99916.66
2022-11-17T22:50:13.954Z,99913.19
2022-11-17T22:52:40.388Z,99920.25
2022-11-17T22:55:07.203Z,99914.88
2022-11-17T22:57:33.605Z,99918.38
2022-11-17T23:00:00.074Z,99921.06
2022-11-17T23:02:26.637Z,99920.19
2022-11-17T23:04:53.130Z,99931.56
2022-11-17T23:07:19.699Z,99929.78
2022-11-17T23:09:46.166Z,99932.50
2022-11-17T23:12:12.638Z,99929.88
2022-11-17T23:14:39.268Z,99926.31
2022-11-17T23:17:05.792Z,99930.72
2022-11-17T23:19:32.613Z,99928.94
2022-11-17T23:21:59.189Z,99930.72
2022-11-17T23:24:25.669Z,99929.03
2022-11-17T23:26:52.075Z,99940.47
2022-11-17T23:29:18.783Z,99943.09
2022-11-17T23:31:45.377Z,99929.13
2022-11-17T23:34:11.761Z,99941.28
2022-11-17T23:36:38.326Z,99936.97
2022-11-17T23:39:04.708Z,99932.50
2022-11-17T23:41:31.129Z,99937.75
2022-11-17T23:43:57.549Z,99937.88
2022-11-17T23:46:25.861Z,99938.75
2022-11-17T23:48:52.453Z,99948.38
2022-11-17T23:51:20.376Z,99930.13
2022-11-17T23:53:46.946Z,99944.00
2022-11-17T23:56:13.413Z,99948.41
2022-11-17T23:58:39.941Z,99950.91
